Scf Baltica — A8IA5 — position and weather

sailwx.info

Track history (hours):
 
Tides and Currents Weather Stations Pressure Air Temp Water Temp Dewpoint Dewpoint Depression Visibility Wind Speed Wind Dir Waves Ship Positions

Scf Baltica

Last reported at 2014-Aug-20 20:22 UTC. Time now 2014-Aug-21 08:17 UTC.
Position N 60°03' E 027°20'.

Length 250 m; draft 8.8 m.

Type: Ship. MMSI: 636012813.

Date/timePositionNaut miles runAvg speedWind from/ knotsBaromVisibWave heightAir tempDewpointWater temp
2014-Aug-20 20:22N 60°03' E 027°20'10 8.8
2014-Aug-20 19:14N 59°58' E 027°03'7 9.6
2014-Aug-20 18:33N 59°59' E 026°50'10 9.3
2014-Aug-20 17:30N 59°58' E 026°30'80 9.7
2014-Aug-20 09:13N 59°38' E 023°55'6 9.0
2014-Aug-20 08:33N 59°36' E 023°44'9 9.1
2014-Aug-20 07:33N 59°34' E 023°27'306 9.8
2014-Aug-19 00:12N 55°60' E 016°37'710.4
2014-Aug-18 23:33N 55°56' E 016°26'1010.5
2014-Aug-18 22:33N 55°51' E 016°10'1010.2
2014-Aug-18 21:33N 55°46' E 015°55'2210.0
2014-Aug-18 19:23N 55°35' E 015°22'910.2
2014-Aug-18 18:33N 55°31' E 015°08'1010.3
2014-Aug-18 17:34N 55°27' E 014°52'1010.2
2014-Aug-18 16:34N 55°21' E 014°37'1010.1
2014-Aug-18 15:34N 55°13' E 014°26'1010.0
2014-Aug-18 14:31N 55°05' E 014°14'19 9.9
2014-Aug-18 12:33N 54°56' E 013°44'1110.6
2014-Aug-18 11:33N 54°53' E 013°26'1110.6
2014-Aug-18 10:33N 54°50' E 013°09'1010.1
2014-Aug-18 09:33N 54°46' E 012°53'1313.0
2014-Aug-18 08:33N 54°40' E 012°33'1313.0
2014-Aug-18 07:33N 54°32' E 012°15'1212.0
2014-Aug-18 06:33N 54°25' E 011°59'128 9.7
2014-Aug-17 17:17N 56°33' E 011°39'811.6
2014-Aug-17 16:34N 56°40' E 011°47'1111.1
2014-Aug-17 15:33N 56°51' E 011°49'1312.6
2014-Aug-17 14:34N 57°03' E 011°41'1312.8
2014-Aug-17 13:33N 57°15' E 011°33'1312.8
2014-Aug-17 12:33N 57°27' E 011°24'1313.4
2014-Aug-17 11:34N 57°36' E 011°07'1413.6
2014-Aug-17 10:34N 57°45' E 010°48'1413.5
2014-Aug-17 09:33N 57°47' E 010°23'5714.3
2014-Aug-17 05:33N 57°33' E 008°39'20113.3
2014-Aug-16 14:24N 54°42' E 005°28'1113.1
2014-Aug-16 13:33N 54°33' E 005°17'1313.1
2014-Aug-16 12:33N 54°21' E 005°06'1313.1
2014-Aug-16 11:32N 54°10' E 004°54'1313.2
2014-Aug-16 10:32N 53°59' E 004°42'15911.9
2014-Aug-15 21:08N 51°42' E 002°29'712.6
2014-Aug-15 20:33N 51°36' E 002°22'1313.0
2014-Aug-15 19:33N 51°26' E 002°09'1413.5
2014-Aug-15 18:33N 51°13' E 002°02'1414.2
2014-Aug-15 17:33N 51°06' E 001°43'3514.1
2014-Aug-15 15:04N 50°36' E 001°12'714.3
2014-Aug-15 14:33N 50°32' E 001°03'1413.8
2014-Aug-15 13:33N 50°27' E 000°43'1514.9
2014-Aug-15 12:32N 50°23' E 000°20'  
2014-Aug-11 07:31N 37°14' W 009°25'42 7.8
2014-Aug-11 02:07N 36°43' W 008°48'5 9.8
2014-Aug-11 01:33N 36°44' W 008°41'10 9.7
2014-Aug-11 00:33N 36°44' W 008°29'10 9.6
2014-Aug-10 23:34N 36°45' W 008°17'10 9.8
2014-Aug-10 22:34N 36°45' W 008°05'10 9.4
2014-Aug-10 21:33N 36°46' W 007°53'  
Track history (hours):
 
Tides and Currents Weather Stations Pressure Air Temp Water Temp Dewpoint Dewpoint Depression Visibility Wind Speed Wind Dir Waves Ship Positions

Scf Baltica

Last reported at 2014-Aug-20 20:22 UTC. Time now 2014-Aug-21 08:17 UTC.
Position N 60°03' E 027°20'.

Length 250 m; draft 8.8 m.

Type: Ship. MMSI: 636012813.

Date/timePositionNaut miles runAvg speedWind from/ knotsBaromVisibWave heightAir tempDewpointWater temp
2014-Aug-20 20:22N 60°03' E 027°20'10 8.8
2014-Aug-20 19:14N 59°58' E 027°03'7 9.6
2014-Aug-20 18:33N 59°59' E 026°50'10 9.3
2014-Aug-20 17:30N 59°58' E 026°30'80 9.7
2014-Aug-20 09:13N 59°38' E 023°55'6 9.0
2014-Aug-20 08:33N 59°36' E 023°44'9 9.1
2014-Aug-20 07:33N 59°34' E 023°27'306 9.8
2014-Aug-19 00:12N 55°60' E 016°37'710.4
2014-Aug-18 23:33N 55°56' E 016°26'1010.5
2014-Aug-18 22:33N 55°51' E 016°10'1010.2
2014-Aug-18 21:33N 55°46' E 015°55'2210.0
2014-Aug-18 19:23N 55°35' E 015°22'910.2
2014-Aug-18 18:33N 55°31' E 015°08'1010.3
2014-Aug-18 17:34N 55°27' E 014°52'1010.2
2014-Aug-18 16:34N 55°21' E 014°37'1010.1
2014-Aug-18 15:34N 55°13' E 014°26'1010.0
2014-Aug-18 14:31N 55°05' E 014°14'19 9.9
2014-Aug-18 12:33N 54°56' E 013°44'1110.6
2014-Aug-18 11:33N 54°53' E 013°26'1110.6
2014-Aug-18 10:33N 54°50' E 013°09'1010.1
2014-Aug-18 09:33N 54°46' E 012°53'1313.0
2014-Aug-18 08:33N 54°40' E 012°33'1313.0
2014-Aug-18 07:33N 54°32' E 012°15'1212.0
2014-Aug-18 06:33N 54°25' E 011°59'128 9.7
2014-Aug-17 17:17N 56°33' E 011°39'811.6
2014-Aug-17 16:34N 56°40' E 011°47'1111.1
2014-Aug-17 15:33N 56°51' E 011°49'1312.6
2014-Aug-17 14:34N 57°03' E 011°41'1312.8
2014-Aug-17 13:33N 57°15' E 011°33'1312.8
2014-Aug-17 12:33N 57°27' E 011°24'1313.4
2014-Aug-17 11:34N 57°36' E 011°07'1413.6
2014-Aug-17 10:34N 57°45' E 010°48'1413.5
2014-Aug-17 09:33N 57°47' E 010°23'5714.3
2014-Aug-17 05:33N 57°33' E 008°39'20113.3
2014-Aug-16 14:24N 54°42' E 005°28'1113.1
2014-Aug-16 13:33N 54°33' E 005°17'1313.1
2014-Aug-16 12:33N 54°21' E 005°06'1313.1
2014-Aug-16 11:32N 54°10' E 004°54'1313.2
2014-Aug-16 10:32N 53°59' E 004°42'15911.9
2014-Aug-15 21:08N 51°42' E 002°29'712.6
2014-Aug-15 20:33N 51°36' E 002°22'1313.0
2014-Aug-15 19:33N 51°26' E 002°09'1413.5
2014-Aug-15 18:33N 51°13' E 002°02'1414.2
2014-Aug-15 17:33N 51°06' E 001°43'3514.1
2014-Aug-15 15:04N 50°36' E 001°12'714.3
2014-Aug-15 14:33N 50°32' E 001°03'1413.8
2014-Aug-15 13:33N 50°27' E 000°43'1514.9
2014-Aug-15 12:32N 50°23' E 000°20'  
2014-Aug-11 07:31N 37°14' W 009°25'42 7.8
2014-Aug-11 02:07N 36°43' W 008°48'5 9.8
2014-Aug-11 01:33N 36°44' W 008°41'10 9.7
2014-Aug-11 00:33N 36°44' W 008°29'10 9.6
2014-Aug-10 23:34N 36°45' W 008°17'10 9.8
2014-Aug-10 22:34N 36°45' W 008°05'10 9.4
2014-Aug-10 21:33N 36°46' W 007°53'  

Dump ship's entire track history